createdAt,value
2019-05-18T00:01:18.497Z,35.93
2019-05-18T00:03:47.166Z,34.87
2019-05-18T00:06:15.878Z,34.40
2019-05-18T00:08:44.573Z,35.20
2019-05-18T00:11:13.172Z,36.07
2019-05-18T00:13:41.889Z,29.33
2019-05-18T00:16:10.673Z,34.23
2019-05-18T00:18:39.302Z,33.60
2019-05-18T00:21:07.951Z,32.80
2019-05-18T00:23:36.551Z,31.73
2019-05-18T00:26:05.230Z,32.67
2019-05-18T00:28:33.890Z,32.07
2019-05-18T00:31:02.566Z,31.70
2019-05-18T00:33:31.393Z,32.37
2019-05-18T00:36:00.066Z,31.13
2019-05-18T00:38:28.836Z,32.87
2019-05-18T00:40:57.501Z,30.70
2019-05-18T00:43:26.187Z,30.27
2019-05-18T00:45:54.858Z,31.83
2019-05-18T00:48:23.495Z,30.47
2019-05-18T00:50:52.202Z,28.33
2019-05-18T00:53:20.883Z,30.40
2019-05-18T00:55:49.521Z,30.83
2019-05-18T00:58:18.275Z,30.23
2019-05-18T01:00:46.973Z,29.87
2019-05-18T01:03:15.683Z,31.23
2019-05-18T01:05:44.359Z,33.33
2019-05-18T01:08:12.998Z,31.53
2019-05-18T01:10:42.684Z,30.00
2019-05-18T01:13:11.678Z,30.70
2019-05-18T01:15:40.285Z,31.67
2019-05-18T01:18:09.026Z,27.63
2019-05-18T01:20:37.861Z,29.73
2019-05-18T01:23:06.551Z,28.80
2019-05-18T01:25:35.160Z,30.53
2019-05-18T01:28:03.804Z,30.20
2019-05-18T01:30:32.479Z,32.00
2019-05-18T01:33:01.212Z,29.33
2019-05-18T01:35:29.913Z,30.33
2019-05-18T01:37:58.678Z,33.43
2019-05-18T01:40:27.328Z,29.63
2019-05-18T01:42:55.918Z,31.87
2019-05-18T01:45:24.542Z,31.50
2019-05-18T01:47:53.267Z,33.10
2019-05-18T01:50:21.930Z,31.57
2019-05-18T01:52:50.783Z,31.50
2019-05-18T01:55:19.398Z,30.07
2019-05-18T01:57:48.110Z,30.37
2019-05-18T02:00:17.188Z,32.10
2019-05-18T02:02:45.874Z,29.97
2019-05-18T02:05:14.547Z,33.07
2019-05-18T02:07:43.151Z,29.33
2019-05-18T02:10:12.081Z,29.23
2019-05-18T02:12:40.703Z,30.90
2019-05-18T02:15:09.828Z,32.50
2019-05-18T02:17:38.501Z,28.37
2019-05-18T02:20:07.451Z,31.00
2019-05-18T02:22:36.136Z,30.23
2019-05-18T02:25:08.098Z,30.33
2019-05-18T02:27:36.810Z,25.73
2019-05-18T02:30:08.078Z,30.83
2019-05-18T02:32:36.765Z,30.47
2019-05-18T02:35:06.897Z,31.93
2019-05-18T02:37:35.571Z,31.83
2019-05-18T02:40:06.386Z,29.17
2019-05-18T02:42:34.986Z,31.37
2019-05-18T02:45:04.729Z,25.57
2019-05-18T02:47:33.393Z,28.37
2019-05-18T02:50:02.044Z,32.47
2019-05-18T02:52:32.403Z,28.70
2019-05-18T02:55:01.103Z,30.53
2019-05-18T02:57:29.808Z,29.50
2019-05-18T02:59:58.495Z,34.03
2019-05-18T03:02:27.284Z,31.50
2019-05-18T03:04:56.062Z,30.00
2019-05-18T03:07:24.877Z,28.30
2019-05-18T03:09:53.644Z,31.07
2019-05-18T03:12:22.270Z,30.20
2019-05-18T03:14:50.889Z,30.77
2019-05-18T03:17:19.583Z,30.33
2019-05-18T03:19:48.307Z,29.70
2019-05-18T03:22:17.015Z,32.40
2019-05-18T03:24:45.618Z,32.93
2019-05-18T03:27:14.289Z,29.03
2019-05-18T03:29:42.981Z,30.77
2019-05-18T03:32:11.608Z,27.57
2019-05-18T03:34:40.406Z,30.13
2019-05-18T03:37:09.116Z,28.83
2019-05-18T03:39:37.713Z,31.70
2019-05-18T03:42:06.351Z,30.40
2019-05-18T03:44:35.028Z,37.60
2019-05-18T03:47:03.775Z,27.63
2019-05-18T03:49:32.514Z,29.70
2019-05-18T03:52:01.203Z,31.47
2019-05-18T03:54:29.838Z,29.10
2019-05-18T03:56:58.536Z,29.20
2019-05-18T03:59:27.251Z,29.20
2019-05-18T04:01:55.933Z,30.10
2019-05-18T04:04:24.650Z,27.00
2019-05-18T04:06:53.348Z,28.83
2019-05-18T04:09:22.059Z,31.33
2019-05-18T04:11:50.709Z,28.13
2019-05-18T04:14:19.385Z,27.60
2019-05-18T04:16:48.157Z,27.80
2019-05-18T04:19:16.779Z,27.07
2019-05-18T04:21:45.484Z,28.57
2019-05-18T04:24:14.350Z,32.63
2019-05-18T04:26:43.126Z,28.20
2019-05-18T04:29:11.949Z,28.90
2019-05-18T04:31:40.639Z,32.43
2019-05-18T04:34:09.278Z,26.57
2019-05-18T04:36:38.124Z,31.43
2019-05-18T04:39:07.125Z,29.03
2019-05-18T04:41:35.846Z,31.97
2019-05-18T04:44:04.532Z,30.20
2019-05-18T04:46:33.169Z,29.50
2019-05-18T04:49:01.836Z,30.07
2019-05-18T04:51:30.580Z,26.83
2019-05-18T04:53:59.266Z,28.03
2019-05-18T04:56:27.946Z,27.50
2019-05-18T04:58:56.714Z,29.07
2019-05-18T05:01:25.416Z,26.97
2019-05-18T05:03:54.054Z,28.00
2019-05-18T05:06:22.763Z,27.73
2019-05-18T05:08:51.399Z,28.93
2019-05-18T05:11:20.004Z,30.87
2019-05-18T05:13:48.741Z,29.33
2019-05-18T05:16:17.340Z,30.37
2019-05-18T05:18:45.964Z,26.53
2019-05-18T05:21:14.698Z,28.13
2019-05-18T05:23:43.358Z,29.87
2019-05-18T05:26:12.067Z,33.20
2019-05-18T05:28:40.687Z,32.23
2019-05-18T05:31:09.381Z,30.23
2019-05-18T05:33:38.020Z,32.97
2019-05-18T05:36:06.682Z,27.87
2019-05-18T05:38:35.330Z,31.13
2019-05-18T05:41:04.079Z,30.87
2019-05-18T05:43:32.766Z,32.13
2019-05-18T05:46:01.363Z,31.63
2019-05-18T05:48:30.016Z,30.57
2019-05-18T05:50:58.699Z,29.23
2019-05-18T05:53:27.428Z,30.40
2019-05-18T05:55:56.051Z,33.13
2019-05-18T05:58:24.823Z,29.13
2019-05-18T06:00:53.491Z,28.43
2019-05-18T06:03:22.438Z,28.37
2019-05-18T06:05:51.041Z,28.87
2019-05-18T06:08:19.680Z,26.37
2019-05-18T06:10:48.426Z,28.47
2019-05-18T06:13:17.074Z,32.07
2019-05-18T06:15:45.752Z,28.90
2019-05-18T06:18:14.391Z,32.83
2019-05-18T06:20:50.961Z,32.23
2019-05-18T06:23:13.433Z,28.33
2019-05-18T06:25:42.145Z,27.07
2019-05-18T06:28:10.747Z,27.67
2019-05-18T06:30:39.403Z,28.83
2019-05-18T06:33:08.112Z,30.47
2019-05-18T06:35:36.816Z,29.50
2019-05-18T06:38:05.648Z,25.63
2019-05-18T06:40:34.337Z,25.87
2019-05-18T06:43:03.016Z,24.87
2019-05-18T06:45:31.803Z,24.70
2019-05-18T06:48:00.510Z,27.13
2019-05-18T06:50:31.393Z,27.33
2019-05-18T06:52:59.992Z,34.73
2019-05-18T06:55:28.642Z,26.07
2019-05-18T06:57:58.221Z,22.20
2019-05-18T07:00:27.157Z,20.07
2019-05-18T07:02:55.850Z,25.10
2019-05-18T07:05:24.567Z,22.60
2019-05-18T07:07:53.241Z,22.03
2019-05-18T07:10:21.874Z,19.80
2019-05-18T07:12:50.494Z,20.77
2019-05-18T07:15:19.487Z,17.87
2019-05-18T07:17:48.161Z,17.57
2019-05-18T07:20:17.271Z,17.37
2019-05-18T07:22:45.949Z,18.63
2019-05-18T07:25:14.919Z,13.77
2019-05-18T07:27:43.541Z,15.30
2019-05-18T07:30:13.742Z,16.17
2019-05-18T07:32:42.463Z,16.20
2019-05-18T07:35:11.738Z,13.47
2019-05-18T07:37:40.465Z,13.97
2019-05-18T07:40:09.474Z,13.20
2019-05-18T07:42:38.099Z,17.73
2019-05-18T07:45:08.331Z,12.40
2019-05-18T07:47:36.965Z,11.80
2019-05-18T07:50:06.704Z,15.87
2019-05-18T07:52:35.375Z,14.30
2019-05-18T07:55:07.759Z,12.37
2019-05-18T07:57:36.450Z,13.93
2019-05-18T08:00:06.527Z,13.43
2019-05-18T08:02:35.274Z,12.27
2019-05-18T08:05:05.972Z,14.20
2019-05-18T08:07:34.771Z,17.30
2019-05-18T08:10:04.795Z,13.97
2019-05-18T08:12:33.502Z,14.27
2019-05-18T08:15:02.197Z,11.90
2019-05-18T08:17:30.915Z,13.83
2019-05-18T08:19:59.567Z,12.03
2019-05-18T08:22:28.242Z,17.00
2019-05-18T08:24:56.946Z,14.03
2019-05-18T08:27:25.579Z,16.90
2019-05-18T08:30:17.045Z,13.20
2019-05-18T08:32:24.978Z,13.57
2019-05-18T08:34:53.704Z,12.87
2019-05-18T08:37:22.472Z,13.83
2019-05-18T08:39:51.213Z,13.03
2019-05-18T08:42:19.956Z,11.10
2019-05-18T08:44:48.622Z,14.03
2019-05-18T08:47:17.339Z,10.03
2019-05-18T08:49:45.944Z,12.17
2019-05-18T08:52:14.714Z,10.80
2019-05-18T08:54:43.323Z,15.37
2019-05-18T08:57:11.964Z,12.23
2019-05-18T08:59:40.685Z,13.47
2019-05-18T09:02:09.378Z,12.43
2019-05-18T09:04:38.097Z,16.13
2019-05-18T09:07:06.908Z,12.30
2019-05-18T09:09:35.637Z,12.73
2019-05-18T09:12:04.410Z,13.23
2019-05-18T09:14:33.139Z,15.90
2019-05-18T09:17:01.916Z,11.73
2019-05-18T09:19:30.668Z,11.13
2019-05-18T09:21:59.410Z,11.20
2019-05-18T09:24:28.102Z,11.83
2019-05-18T09:26:56.817Z,11.13
2019-05-18T09:29:25.531Z,13.63
2019-05-18T09:31:54.423Z,11.37
2019-05-18T09:34:23.174Z,13.27
2019-05-18T09:36:51.850Z,11.73
2019-05-18T09:39:20.568Z,13.27
2019-05-18T09:41:49.297Z,13.70
2019-05-18T09:44:17.967Z,10.67
2019-05-18T09:46:46.686Z,10.37
2019-05-18T09:49:15.394Z,10.03
2019-05-18T09:51:44.105Z,8.53
2019-05-18T09:54:12.770Z,9.20
2019-05-18T09:56:41.440Z,8.10
2019-05-18T09:59:10.196Z,10.43
2019-05-18T10:01:38.846Z,11.17
2019-05-18T10:04:07.678Z,9.53
2019-05-18T10:06:36.388Z,10.60
2019-05-18T10:09:07.871Z,11.37
2019-05-18T10:11:38.649Z,15.73
2019-05-18T10:14:06.892Z,11.70
2019-05-18T10:16:35.563Z,11.33
2019-05-18T10:19:04.280Z,13.33
2019-05-18T10:21:32.941Z,11.13
2019-05-18T10:24:01.623Z,12.00
2019-05-18T10:26:30.296Z,9.67
2019-05-18T10:28:59.151Z,10.83
2019-05-18T10:31:27.860Z,10.10
2019-05-18T10:33:56.602Z,8.77
2019-05-18T10:36:25.324Z,11.63
2019-05-18T10:38:53.991Z,9.43
2019-05-18T10:41:22.672Z,8.57
2019-05-18T10:43:51.366Z,12.23
2019-05-18T10:46:20.161Z,9.60
2019-05-18T10:48:48.923Z,10.97
2019-05-18T10:51:17.587Z,9.70
2019-05-18T10:53:46.412Z,10.00
2019-05-18T10:56:15.169Z,9.17
2019-05-18T10:58:43.876Z,8.50
2019-05-18T11:01:12.579Z,7.70
2019-05-18T11:03:41.215Z,8.10
2019-05-18T11:06:09.907Z,9.07
2019-05-18T11:08:38.627Z,8.83
2019-05-18T11:11:07.239Z,9.70
2019-05-18T11:13:35.979Z,9.30
2019-05-18T11:16:04.705Z,10.83
2019-05-18T11:18:33.349Z,8.70
2019-05-18T11:21:03.548Z,10.57
2019-05-18T11:23:43.257Z,8.67
2019-05-18T11:26:02.594Z,8.77
2019-05-18T11:28:31.322Z,9.33
2019-05-18T11:30:59.982Z,11.13
2019-05-18T11:33:28.711Z,8.10
2019-05-18T11:35:57.407Z,7.87
2019-05-18T11:38:26.008Z,7.77
2019-05-18T11:40:54.715Z,8.80
2019-05-18T11:43:23.315Z,8.33
2019-05-18T11:45:52.132Z,10.70
2019-05-18T11:48:20.872Z,9.33
2019-05-18T11:50:49.499Z,8.83
2019-05-18T11:53:18.244Z,7.10
2019-05-18T11:55:46.872Z,8.80
2019-05-18T11:58:15.500Z,9.57
2019-05-18T12:00:44.125Z,8.70
2019-05-18T12:03:12.836Z,7.97
2019-05-18T12:05:41.610Z,7.30
2019-05-18T12:08:10.356Z,7.83
2019-05-18T12:10:38.987Z,8.30
2019-05-18T12:13:07.658Z,8.10
2019-05-18T12:15:36.330Z,8.77
2019-05-18T12:18:04.974Z,7.53
2019-05-18T12:20:33.714Z,6.43
2019-05-18T12:23:02.497Z,7.77
2019-05-18T12:25:31.132Z,7.80
2019-05-18T12:27:59.864Z,7.43
2019-05-18T12:30:28.580Z,10.23
2019-05-18T12:32:57.252Z,8.20
2019-05-18T12:35:25.942Z,9.17
2019-05-18T12:37:54.618Z,5.77
2019-05-18T12:40:23.843Z,7.75
2019-05-18T12:42:52.483Z,5.90
2019-05-18T12:45:21.395Z,5.62
2019-05-18T12:47:50.104Z,7.62
2019-05-18T12:50:19.494Z,7.03
2019-05-18T12:52:48.178Z,6.87
2019-05-18T12:55:17.946Z,6.45
2019-05-18T12:57:46.663Z,7.70
2019-05-18T13:00:16.863Z,7.87
2019-05-18T13:02:45.576Z,5.97
2019-05-18T13:05:14.308Z,6.92
2019-05-18T13:07:42.917Z,6.35
2019-05-18T13:10:12.724Z,7.37
2019-05-18T13:12:41.332Z,6.03
2019-05-18T13:15:11.222Z,5.50
2019-05-18T13:17:39.978Z,6.80
2019-05-18T13:20:10.433Z,4.78
2019-05-18T13:22:39.088Z,5.08
2019-05-18T13:25:08.575Z,5.33
2019-05-18T13:27:39.788Z,6.30
2019-05-18T13:30:09.451Z,4.75
2019-05-18T13:32:41.613Z,5.22
2019-05-18T13:35:10.719Z,6.28
2019-05-18T13:37:39.459Z,5.15
2019-05-18T13:40:09.843Z,5.35
2019-05-18T13:42:38.518Z,4.72
2019-05-18T13:45:08.974Z,5.87
2019-05-18T13:47:37.611Z,5.30
2019-05-18T13:50:07.432Z,5.53
2019-05-18T13:52:36.235Z,5.92
2019-05-18T13:55:05.903Z,5.90
2019-05-18T13:57:34.865Z,7.15
2019-05-18T14:00:09.636Z,9.10
2019-05-18T14:02:38.391Z,8.55
2019-05-18T14:05:08.811Z,6.55
2019-05-18T14:07:37.559Z,6.33
2019-05-18T14:10:07.967Z,7.75
2019-05-18T14:12:36.649Z,7.08
2019-05-18T14:15:07.994Z,8.48
2019-05-18T14:17:36.780Z,7.20
2019-05-18T14:20:07.067Z,6.47
2019-05-18T14:22:35.804Z,7.28
2019-05-18T14:25:18.646Z,8.78
2019-05-18T14:27:39.908Z,8.10
2019-05-18T14:30:09.383Z,8.15
2019-05-18T14:32:38.045Z,6.97
2019-05-18T14:35:07.930Z,7.00
2019-05-18T14:37:36.673Z,9.13
2019-05-18T14:40:07.310Z,7.55
2019-05-18T14:42:35.984Z,7.75
2019-05-18T14:45:07.061Z,7.20
2019-05-18T14:47:35.762Z,5.80
2019-05-18T14:50:08.271Z,6.12
2019-05-18T14:52:36.883Z,7.45
2019-05-18T14:55:08.522Z,7.12
2019-05-18T14:57:37.195Z,8.43
2019-05-18T15:00:06.976Z,9.45
2019-05-18T15:02:35.623Z,6.30
2019-05-18T15:05:06.642Z,9.20
2019-05-18T15:07:35.266Z,8.20
2019-05-18T15:10:08.101Z,6.17
2019-05-18T15:12:36.927Z,6.73
2019-05-18T15:15:09.339Z,7.60
2019-05-18T15:17:38.008Z,6.07
2019-05-18T15:20:08.183Z,7.90
2019-05-18T15:22:36.797Z,7.70
2019-05-18T15:25:06.315Z,7.10
2019-05-18T15:27:34.991Z,7.23
2019-05-18T15:30:04.159Z,7.27
2019-05-18T15:32:32.832Z,6.97
2019-05-18T15:35:01.560Z,9.40
2019-05-18T15:37:30.223Z,8.73
2019-05-18T15:39:58.974Z,7.97
2019-05-18T15:42:27.724Z,8.50
2019-05-18T15:44:56.414Z,14.13
2019-05-18T15:47:25.146Z,11.60
2019-05-18T15:49:53.870Z,13.00
2019-05-18T15:52:22.723Z,12.07
2019-05-18T15:54:51.491Z,7.33
2019-05-18T15:57:20.164Z,6.77
2019-05-18T15:59:48.871Z,6.50
2019-05-18T16:02:17.562Z,9.00
2019-05-18T16:04:46.221Z,6.57
2019-05-18T16:07:14.905Z,6.20
2019-05-18T16:09:43.629Z,8.77
2019-05-18T16:12:12.287Z,6.40
2019-05-18T16:14:40.997Z,8.07
2019-05-18T16:17:12.264Z,7.83
2019-05-18T16:19:40.931Z,6.10
2019-05-18T16:22:09.566Z,8.10
2019-05-18T16:24:38.168Z,7.03
2019-05-18T16:27:06.835Z,7.83
2019-05-18T16:29:35.529Z,8.53
2019-05-18T16:32:04.337Z,7.30
2019-05-18T16:34:33.011Z,9.80
2019-05-18T16:37:02.018Z,7.07
2019-05-18T16:39:30.611Z,7.60
2019-05-18T16:41:59.394Z,10.77
2019-05-18T16:44:29.454Z,9.03
2019-05-18T16:46:58.082Z,10.80
2019-05-18T16:49:26.699Z,8.17
2019-05-18T16:51:55.384Z,7.57
2019-05-18T16:54:24.293Z,7.50
2019-05-18T16:56:53.007Z,8.27
2019-05-18T16:59:21.682Z,10.50
2019-05-18T17:01:50.466Z,7.57
2019-05-18T17:04:19.228Z,9.23
2019-05-18T17:06:47.891Z,6.63
2019-05-18T17:09:16.596Z,6.40
2019-05-18T17:11:48.032Z,7.00
2019-05-18T17:14:15.585Z,9.70
2019-05-18T17:16:44.247Z,7.73
2019-05-18T17:19:13.038Z,8.97
2019-05-18T17:21:41.707Z,7.57
2019-05-18T17:24:10.381Z,9.97
2019-05-18T17:26:52.184Z,7.47
2019-05-18T17:29:10.084Z,8.30
2019-05-18T17:31:38.958Z,9.23
2019-05-18T17:34:07.666Z,8.40
2019-05-18T17:36:36.375Z,8.30
2019-05-18T17:39:06.676Z,7.97
2019-05-18T17:41:35.480Z,9.13
2019-05-18T17:44:04.238Z,7.87
2019-05-18T17:46:33.002Z,9.60
2019-05-18T17:49:01.667Z,14.00
2019-05-18T17:51:30.367Z,11.67
2019-05-18T17:53:59.074Z,12.53
2019-05-18T17:56:27.736Z,15.40
2019-05-18T17:58:56.451Z,15.70
2019-05-18T18:01:25.270Z,9.77
2019-05-18T18:03:53.954Z,13.67
2019-05-18T18:06:22.722Z,12.53
2019-05-18T18:08:51.365Z,10.63
2019-05-18T18:11:20.060Z,18.70
2019-05-18T18:13:48.807Z,24.10
2019-05-18T18:16:19.063Z,16.87
2019-05-18T18:18:47.780Z,18.80
2019-05-18T18:21:16.415Z,21.30
2019-05-18T18:23:52.791Z,23.47
2019-05-18T18:26:15.535Z,21.53
2019-05-18T18:28:44.325Z,22.20
2019-05-18T18:31:13.018Z,25.67
2019-05-18T18:33:41.674Z,18.67
2019-05-18T18:36:10.431Z,20.10
2019-05-18T18:38:39.234Z,18.17
2019-05-18T18:41:07.981Z,27.43
2019-05-18T18:43:36.769Z,23.93
2019-05-18T18:46:05.421Z,24.83
2019-05-18T18:48:34.096Z,24.37
2019-05-18T18:51:02.806Z,20.10
2019-05-18T18:53:31.534Z,19.37
2019-05-18T18:56:00.190Z,23.03
2019-05-18T18:58:28.901Z,24.73
2019-05-18T19:00:57.615Z,25.50
2019-05-18T19:03:26.371Z,26.27
2019-05-18T19:05:55.145Z,21.40
2019-05-18T19:08:23.852Z,23.13
2019-05-18T19:10:52.571Z,24.27
2019-05-18T19:13:21.378Z,23.63
2019-05-18T19:15:50.138Z,26.00
2019-05-18T19:18:18.758Z,33.17
2019-05-18T19:20:47.488Z,32.87
2019-05-18T19:23:16.235Z,38.43
2019-05-18T19:25:45.070Z,41.33
2019-05-18T19:28:13.839Z,31.90
2019-05-18T19:30:42.648Z,31.20
2019-05-18T19:33:11.343Z,29.73
2019-05-18T19:35:40.041Z,34.00
2019-05-18T19:38:08.663Z,32.17
2019-05-18T19:40:37.349Z,28.80
2019-05-18T19:43:06.106Z,27.93
2019-05-18T19:45:34.814Z,37.60
2019-05-18T19:48:03.520Z,36.83
2019-05-18T19:50:32.289Z,36.77
2019-05-18T19:53:01.013Z,31.57
2019-05-18T19:55:29.746Z,33.60
2019-05-18T19:58:08.469Z,33.23
2019-05-18T20:00:28.826Z,32.07
2019-05-18T20:02:57.650Z,33.40
2019-05-18T20:05:26.355Z,33.97
2019-05-18T20:07:55.066Z,34.93
2019-05-18T20:10:23.794Z,31.90
2019-05-18T20:12:52.502Z,32.63
2019-05-18T20:15:21.243Z,37.60
2019-05-18T20:17:49.969Z,33.77
2019-05-18T20:20:19.743Z,35.10
2019-05-18T20:22:48.452Z,32.87
2019-05-18T20:25:17.139Z,35.13
2019-05-18T20:27:45.855Z,32.97
2019-05-18T20:30:14.827Z,34.23
2019-05-18T20:32:43.486Z,37.23
2019-05-18T20:35:12.301Z,34.13
2019-05-18T20:37:40.981Z,37.47
2019-05-18T20:40:10.459Z,37.77
2019-05-18T20:42:39.091Z,34.27
2019-05-18T20:45:08.836Z,31.07
2019-05-18T20:47:37.561Z,39.40
2019-05-18T20:50:11.122Z,35.43
2019-05-18T20:52:39.852Z,38.50
2019-05-18T20:55:08.666Z,38.93
2019-05-18T20:57:37.357Z,35.37
2019-05-18T21:00:07.418Z,34.70
2019-05-18T21:02:36.162Z,32.57
2019-05-18T21:05:06.267Z,37.90
2019-05-18T21:07:34.920Z,40.43
2019-05-18T21:10:04.713Z,38.10
2019-05-18T21:12:33.352Z,31.90
2019-05-18T21:15:02.088Z,35.93
2019-05-18T21:17:30.731Z,35.33
2019-05-18T21:19:59.343Z,36.27
2019-05-18T21:22:27.986Z,41.77
2019-05-18T21:24:56.586Z,38.60
2019-05-18T21:27:25.298Z,44.50
2019-05-18T21:29:54.108Z,39.97
2019-05-18T21:32:22.755Z,43.73
2019-05-18T21:34:51.439Z,43.70
2019-05-18T21:37:20.121Z,39.80
2019-05-18T21:39:48.760Z,35.57
2019-05-18T21:42:17.507Z,34.47
2019-05-18T21:44:46.180Z,38.53
2019-05-18T21:47:14.862Z,41.30
2019-05-18T21:49:43.576Z,36.10
2019-05-18T21:52:12.202Z,36.07
2019-05-18T21:54:40.807Z,39.10
2019-05-18T21:57:09.441Z,38.03
2019-05-18T21:59:38.163Z,30.47
2019-05-18T22:02:07.069Z,31.00
2019-05-18T22:04:35.866Z,32.10
2019-05-18T22:07:05.756Z,31.67
2019-05-18T22:09:34.546Z,36.67
2019-05-18T22:12:03.310Z,35.97
2019-05-18T22:14:32.035Z,37.00
2019-05-18T22:17:00.695Z,36.93
2019-05-18T22:19:29.499Z,33.73
2019-05-18T22:21:58.106Z,33.93
2019-05-18T22:24:26.747Z,36.63
2019-05-18T22:26:55.425Z,35.40
2019-05-18T22:29:24.111Z,36.00
2019-05-18T22:31:52.787Z,36.30
2019-05-18T22:34:21.582Z,34.37
2019-05-18T22:36:50.315Z,32.40
2019-05-18T22:39:19.053Z,35.63
2019-05-18T22:41:47.661Z,30.83
2019-05-18T22:44:16.371Z,31.87
2019-05-18T22:46:45.078Z,39.70
2019-05-18T22:49:13.788Z,32.63
2019-05-18T22:51:42.504Z,34.07
2019-05-18T22:54:11.210Z,32.33
2019-05-18T22:56:39.819Z,29.57
2019-05-18T22:59:08.465Z,32.03
2019-05-18T23:01:56.447Z,34.73
2019-05-18T23:04:25.043Z,32.43
2019-05-18T23:06:53.848Z,31.13
2019-05-18T23:09:22.598Z,28.33
2019-05-18T23:11:51.290Z,28.53
2019-05-18T23:14:20.082Z,32.70
2019-05-18T23:16:48.789Z,36.93
2019-05-18T23:19:17.492Z,32.13
2019-05-18T23:21:46.151Z,28.80
2019-05-18T23:24:14.914Z,28.47
2019-05-18T23:26:43.616Z,29.47
2019-05-18T23:29:12.357Z,26.70
2019-05-18T23:31:41.142Z,31.90
2019-05-18T23:34:09.859Z,32.30
2019-05-18T23:36:38.540Z,30.00
2019-05-18T23:39:07.194Z,30.17
2019-05-18T23:41:35.873Z,31.37
2019-05-18T23:44:04.616Z,29.70
2019-05-18T23:46:33.321Z,26.40
2019-05-18T23:49:10.390Z,28.93
2019-05-18T23:51:32.390Z,28.43
2019-05-18T23:54:01.095Z,29.83
2019-05-18T23:56:29.698Z,25.70
2019-05-18T23:58:58.407Z,27.10
